Time,TemperatureF,DewpointF,PressureIn,WindDirection,WindDirectionDegrees,WindSpeedMPH,WindSpeedGustMPH,Humidity,HourlyPrecipIn,Conditions,Clouds,dailyrainin,SoftwareType,DateUTC
2013-02-05 00:02:00,50.4,45.7,30.05,NW,307,1.0,2.0,84,0.00,,,0.00,meteohub,2013-02-05 05:02:00,
2013-02-05 00:07:00,50.5,45.5,30.05,NW,307,0.0,2.0,83,0.00,,,0.00,meteohub,2013-02-05 05:07:00,
2013-02-05 00:12:00,50.5,45.5,30.05,NW,307,0.0,2.0,83,0.00,,,0.00,meteohub,2013-02-05 05:12:00,
2013-02-05 00:17:00,50.5,45.5,30.05,NW,307,0.0,2.0,83,0.00,,,0.00,meteohub,2013-02-05 05:17:00,
2013-02-05 00:22:00,50.4,45.7,30.04,NW,307,0.0,1.0,84,0.00,,,0.00,meteohub,2013-02-05 05:22:00,
2013-02-05 00:27:00,50.2,45.9,30.04,NW,307,0.0,1.0,85,0.00,,,0.00,meteohub,2013-02-05 05:27:00,
2013-02-05 00:37:00,49.8,45.5,30.04,NW,307,0.0,1.0,85,0.00,,,0.00,meteohub,2013-02-05 05:37:00,
2013-02-05 00:42:00,49.8,45.5,30.04,NW,307,0.0,1.0,85,0.00,,,0.00,meteohub,2013-02-05 05:42:00,
2013-02-05 00:47:00,49.8,45.5,30.04,NW,307,1.0,1.0,85,0.00,,,0.00,meteohub,2013-02-05 05:47:00,
2013-02-05 00:52:00,50.0,45.3,30.04,NW,307,0.0,2.0,84,0.00,,,0.00,meteohub,2013-02-05 05:52:00,
2013-02-05 00:57:00,50.2,45.1,30.04,NW,307,0.0,2.0,83,0.00,,,0.00,meteohub,2013-02-05 05:57:00,
2013-02-05 01:02:00,50.2,45.0,30.04,NW,307,0.0,2.0,82,0.00,,,0.00,meteohub,2013-02-05 06:02:00,
2013-02-05 01:07:00,50.4,44.4,30.04,NW,307,0.0,1.0,80,0.00,,,0.00,meteohub,2013-02-05 06:07:00,
2013-02-05 01:12:00,50.4,44.8,30.04,NW,307,0.0,1.0,81,0.00,,,0.00,meteohub,2013-02-05 06:12:00,
2013-02-05 01:17:00,50.4,44.4,30.04,NW,307,0.0,1.0,80,0.00,,,0.00,meteohub,2013-02-05 06:17:00,
2013-02-05 01:22:00,50.5,45.9,30.04,NW,307,0.0,1.0,84,0.00,,,0.00,meteohub,2013-02-05 06:22:00,
2013-02-05 01:27:00,50.2,45.0,30.03,NW,307,0.0,1.0,82,0.00,,,0.00,meteohub,2013-02-05 06:27:00,
2013-02-05 01:32:00,50.0,43.7,30.03,NW,307,0.0,1.0,79,0.00,,,0.00,meteohub,2013-02-05 06:32:00,
2013-02-05 01:37:00,50.4,44.1,30.03,NW,307,0.0,1.0,79,0.00,,,0.00,meteohub,2013-02-05 06:37:00,
2013-02-05 01:42:00,50.4,44.8,30.02,NW,307,1.0,2.0,81,0.00,,,0.00,meteohub,2013-02-05 06:42:00,
2013-02-05 01:47:00,50.4,44.1,30.02,NW,307,0.0,3.0,79,0.00,,,0.00,meteohub,2013-02-05 06:47:00,
2013-02-05 01:52:00,50.4,44.4,30.02,NW,307,2.0,3.0,80,0.00,,,0.00,meteohub,2013-02-05 06:52:00,
2013-02-05 01:57:00,50.2,43.9,30.01,WSW,238,1.0,3.0,79,0.00,,,0.00,meteohub,2013-02-05 06:57:00,
2013-02-05 02:02:00,50.2,43.5,30.01,South,183,1.0,5.0,78,0.00,,,0.00,meteohub,2013-02-05 07:02:00,
2013-02-05 02:07:00,50.4,43.7,30.01,South,183,1.0,5.0,78,0.00,,,0.00,meteohub,2013-02-05 07:07:00,
2013-02-05 02:12:00,50.7,43.5,30.00,South,175,2.0,5.0,76,0.00,,,0.00,meteohub,2013-02-05 07:12:00,
2013-02-05 02:17:00,51.1,43.7,30.00,South,175,2.0,4.0,76,0.00,,,0.00,meteohub,2013-02-05 07:17:00,
2013-02-05 02:22:00,51.1,43.7,29.99,South,175,0.0,4.0,76,0.00,,,0.00,meteohub,2013-02-05 07:22:00,
2013-02-05 02:27:00,50.4,43.2,29.99,South,175,0.0,4.0,76,0.00,,,0.00,meteohub,2013-02-05 07:27:00,
2013-02-05 02:32:00,50.2,43.0,29.99,South,175,0.0,3.0,76,0.00,,,0.00,meteohub,2013-02-05 07:32:00,
2013-02-05 02:37:00,50.4,44.1,29.99,South,175,0.0,2.0,79,0.00,,,0.00,meteohub,2013-02-05 07:37:00,
2013-02-05 02:42:00,50.5,43.9,29.99,South,175,0.0,2.0,78,0.00,,,0.00,meteohub,2013-02-05 07:42:00,
2013-02-05 02:47:00,51.3,43.9,29.99,South,175,0.0,2.0,76,0.00,,,0.00,meteohub,2013-02-05 07:47:00,
2013-02-05 02:52:00,51.3,44.2,29.99,South,175,1.0,2.0,77,0.00,,,0.00,meteohub,2013-02-05 07:52:00,
2013-02-05 02:57:00,50.7,44.1,29.99,South,175,0.0,1.0,78,0.00,,,0.00,meteohub,2013-02-05 07:57:00,
2013-02-05 03:02:00,50.7,44.1,29.99,South,175,0.0,1.0,78,0.00,,,0.00,meteohub,2013-02-05 08:02:00,
2013-02-05 03:07:00,51.1,44.1,29.99,SE,129,2.0,2.0,77,0.00,,,0.00,meteohub,2013-02-05 08:07:00,
2013-02-05 03:12:00,51.6,43.5,29.99,East,101,1.0,4.0,74,0.00,,,0.00,meteohub,2013-02-05 08:12:00,
2013-02-05 03:17:00,52.0,42.1,29.99,East,92,1.0,5.0,69,0.00,,,0.00,meteohub,2013-02-05 08:17:00,
2013-02-05 03:22:00,51.8,41.5,29.99,East,90,3.0,6.0,68,0.00,,,0.00,meteohub,2013-02-05 08:22:00,
2013-02-05 03:27:00,52.0,41.7,29.98,East,92,2.0,6.0,68,0.00,,,0.00,meteohub,2013-02-05 08:27:00,
2013-02-05 03:32:00,51.8,41.9,29.98,East,93,1.0,6.0,69,0.00,,,0.00,meteohub,2013-02-05 08:32:00,
2013-02-05 03:37:00,51.6,41.7,29.99,East,93,1.0,6.0,69,0.00,,,0.00,meteohub,2013-02-05 08:37:00,
2013-02-05 03:42:00,51.6,42.4,29.99,East,93,1.0,5.0,71,0.00,,,0.00,meteohub,2013-02-05 08:42:00,
2013-02-05 03:47:00,51.4,42.8,29.99,East,93,0.0,3.0,72,0.00,,,0.00,meteohub,2013-02-05 08:47:00,
2013-02-05 03:52:00,50.9,43.0,29.99,East,93,0.0,3.0,74,0.00,,,0.00,meteohub,2013-02-05 08:52:00,
2013-02-05 03:57:00,50.5,43.0,29.99,East,93,1.0,3.0,75,0.00,,,0.00,meteohub,2013-02-05 08:57:00,
2013-02-05 04:02:00,50.5,43.5,29.99,East,93,0.0,3.0,77,0.00,,,0.00,meteohub,2013-02-05 09:02:00,
2013-02-05 04:07:00,50.5,43.5,29.99,East,93,0.0,3.0,77,0.00,,,0.00,meteohub,2013-02-05 09:07:00,
2013-02-05 04:12:00,50.2,43.0,29.99,East,93,0.0,3.0,76,0.00,,,0.00,meteohub,2013-02-05 09:12:00,
2013-02-05 04:17:00,49.8,43.0,29.99,East,93,0.0,2.0,77,0.00,,,0.00,meteohub,2013-02-05 09:17:00,
2013-02-05 04:22:00,49.8,42.6,29.99,East,93,0.0,1.0,76,0.00,,,0.00,meteohub,2013-02-05 09:22:00,
2013-02-05 04:27:00,49.8,43.2,29.99,East,93,0.0,2.0,78,0.00,,,0.00,meteohub,2013-02-05 09:27:00,
2013-02-05 04:32:00,49.1,43.2,29.99,East,93,2.0,2.0,80,0.00,,,0.00,meteohub,2013-02-05 09:32:00,
2013-02-05 04:37:00,48.7,42.8,29.99,East,93,2.0,3.0,80,0.00,,,0.00,meteohub,2013-02-05 09:37:00,
2013-02-05 04:42:00,48.6,42.6,29.99,East,93,1.0,3.0,80,0.00,,,0.00,meteohub,2013-02-05 09:42:00,
2013-02-05 04:47:00,48.4,42.4,29.99,East,89,2.0,5.0,80,0.00,,,0.00,meteohub,2013-02-05 09:47:00,
2013-02-05 04:52:00,48.0,42.4,29.99,East,86,5.0,5.0,81,0.00,,,0.00,meteohub,2013-02-05 09:52:00,
2013-02-05 05:02:00,47.7,42.4,30.00,East,80,0.0,6.0,82,0.00,,,0.00,meteohub,2013-02-05 10:02:00,
2013-02-05 05:07:00,47.8,42.6,29.99,East,80,1.0,6.0,82,0.00,,,0.00,meteohub,2013-02-05 10:07:00,
2013-02-05 05:12:00,47.8,42.3,29.99,East,80,0.0,5.0,81,0.00,,,0.00,meteohub,2013-02-05 10:12:00,
2013-02-05 05:17:00,47.7,42.1,30.00,East,79,2.0,3.0,81,0.00,,,0.00,meteohub,2013-02-05 10:17:00,
2013-02-05 05:22:00,47.7,41.7,30.00,East,79,0.0,5.0,80,0.00,,,0.00,meteohub,2013-02-05 10:22:00,
2013-02-05 05:27:00,47.5,41.5,30.00,East,79,1.0,5.0,80,0.00,,,0.00,meteohub,2013-02-05 10:27:00,
2013-02-05 05:32:00,47.5,41.4,30.00,East,79,0.0,5.0,79,0.00,,,0.00,meteohub,2013-02-05 10:32:00,
2013-02-05 05:37:00,47.5,41.0,30.00,East,79,0.0,3.0,78,0.00,,,0.00,meteohub,2013-02-05 10:37:00,
2013-02-05 05:42:00,47.5,41.0,30.00,East,79,0.0,3.0,78,0.00,,,0.00,meteohub,2013-02-05 10:42:00,
2013-02-05 05:52:00,47.5,41.5,30.00,East,79,2.0,2.0,80,0.00,,,0.00,meteohub,2013-02-05 10:52:00,
2013-02-05 06:02:00,47.7,41.2,30.00,East,79,0.0,2.0,78,0.00,,,0.00,meteohub,2013-02-05 11:02:00,
2013-02-05 06:07:00,47.8,41.4,30.00,East,79,0.0,2.0,78,0.00,,,0.00,meteohub,2013-02-05 11:07:00,
2013-02-05 06:12:00,47.8,41.4,30.01,East,79,2.0,2.0,78,0.00,,,0.00,meteohub,2013-02-05 11:12:00,
2013-02-05 06:17:00,48.2,41.7,30.01,East,79,0.0,3.0,78,0.00,,,0.00,meteohub,2013-02-05 11:17:00,
2013-02-05 06:22:00,48.4,41.5,30.01,East,79,2.0,3.0,77,0.00,,,0.00,meteohub,2013-02-05 11:22:00,
2013-02-05 06:27:00,48.4,41.9,30.01,East,79,0.0,3.0,78,0.00,,,0.00,meteohub,2013-02-05 11:27:00,
2013-02-05 06:32:00,48.4,41.5,30.01,East,79,0.0,3.0,77,0.00,,,0.00,meteohub,2013-02-05 11:32:00,
2013-02-05 06:37:00,48.4,40.8,30.01,East,79,0.0,3.0,75,0.00,,,0.00,meteohub,2013-02-05 11:37:00,
2013-02-05 06:42:00,48.6,40.6,30.01,East,79,0.0,3.0,74,0.00,,,0.00,meteohub,2013-02-05 11:42:00,
2013-02-05 06:47:00,48.7,41.2,30.02,East,79,0.0,3.0,75,0.00,,,0.00,meteohub,2013-02-05 11:47:00,
2013-02-05 06:52:00,48.9,41.4,30.02,East,79,0.0,3.0,75,0.00,,,0.00,meteohub,2013-02-05 11:52:00,
2013-02-05 06:57:00,48.9,41.4,30.02,East,79,1.0,3.0,75,0.00,,,0.00,meteohub,2013-02-05 11:57:00,
2013-02-05 07:02:00,48.7,41.2,30.02,East,79,2.0,5.0,75,0.00,,,0.00,meteohub,2013-02-05 12:02:00,
2013-02-05 07:07:00,48.6,41.4,30.03,East,79,0.0,5.0,76,0.00,,,0.00,meteohub,2013-02-05 12:07:00,
2013-02-05 07:12:00,48.4,41.2,30.03,East,79,0.0,5.0,76,0.00,,,0.00,meteohub,2013-02-05 12:12:00,
2013-02-05 07:17:00,48.0,40.5,30.03,East,79,0.0,3.0,75,0.00,,,0.00,meteohub,2013-02-05 12:17:00,
2013-02-05 07:22:00,48.4,40.8,30.03,East,79,0.0,2.0,75,0.00,,,0.00,meteohub,2013-02-05 12:22:00,
2013-02-05 07:27:00,48.7,40.8,30.03,East,79,1.0,2.0,74,0.00,,,0.00,meteohub,2013-02-05 12:27:00,
2013-02-05 07:32:00,49.1,40.8,30.03,East,79,0.0,2.0,73,0.00,,,0.00,meteohub,2013-02-05 12:32:00,
2013-02-05 07:42:00,50.0,41.0,30.03,East,79,0.0,2.0,71,0.00,,,0.00,meteohub,2013-02-05 12:42:00,
2013-02-05 07:47:00,50.5,41.5,30.03,East,79,1.0,2.0,71,0.00,,,0.00,meteohub,2013-02-05 12:47:00,
2013-02-05 07:52:00,51.3,42.3,30.04,East,79,2.0,2.0,71,0.00,,,0.00,meteohub,2013-02-05 12:52:00,
2013-02-05 07:57:00,51.6,42.4,30.04,East,80,0.0,2.0,71,0.00,,,0.00,meteohub,2013-02-05 12:57:00,
2013-02-05 08:02:00,52.2,43.0,30.04,East,80,0.0,2.0,71,0.00,,,0.00,meteohub,2013-02-05 13:02:00,
2013-02-05 08:07:00,52.5,43.0,30.04,East,80,1.0,2.0,70,0.00,,,0.00,meteohub,2013-02-05 13:07:00,
2013-02-05 08:12:00,53.1,43.5,30.05,East,80,0.0,2.0,70,0.00,,,0.00,meteohub,2013-02-05 13:12:00,
2013-02-05 08:17:00,53.8,44.2,30.05,East,80,0.0,2.0,70,0.00,,,0.00,meteohub,2013-02-05 13:17:00,
2013-02-05 08:22:00,54.3,44.4,30.05,East,80,1.0,2.0,69,0.00,,,0.00,meteohub,2013-02-05 13:22:00,
2013-02-05 08:27:00,54.7,44.2,30.05,East,80,0.0,3.0,68,0.00,,,0.00,meteohub,2013-02-05 13:27:00,
2013-02-05 08:32:00,55.0,43.9,30.05,East,80,1.0,3.0,66,0.00,,,0.00,meteohub,2013-02-05 13:32:00,
2013-02-05 08:37:00,55.2,43.3,30.05,East,80,1.0,6.0,64,0.00,,,0.00,meteohub,2013-02-05 13:37:00,
2013-02-05 08:42:00,55.6,43.2,30.06,East,82,3.0,6.0,63,0.00,,,0.00,meteohub,2013-02-05 13:42:00,
2013-02-05 08:47:00,55.8,43.0,30.06,East,89,5.0,6.0,62,0.00,,,0.00,meteohub,2013-02-05 13:47:00,
2013-02-05 08:52:00,55.8,42.4,30.06,ESE,104,3.0,7.0,61,0.00,,,0.00,meteohub,2013-02-05 13:52:00,
2013-02-05 08:57:00,56.1,42.8,30.06,ESE,123,2.0,7.0,61,0.00,,,0.00,meteohub,2013-02-05 13:57:00,
2013-02-05 09:02:00,56.5,42.8,30.06,East,101,2.0,7.0,60,0.00,,,0.00,meteohub,2013-02-05 14:02:00,
2013-02-05 09:07:00,56.8,43.2,30.06,East,88,3.0,7.0,60,0.00,,,0.00,meteohub,2013-02-05 14:07:00,
2013-02-05 09:12:00,57.2,43.5,30.06,East,88,7.0,7.0,60,0.00,,,0.00,meteohub,2013-02-05 14:12:00,
2013-02-05 09:17:00,57.0,43.3,30.06,East,88,3.0,8.0,60,0.00,,,0.00,meteohub,2013-02-05 14:17:00,
2013-02-05 09:22:00,57.6,43.7,30.06,East,98,5.0,8.0,60,0.00,,,0.00,meteohub,2013-02-05 14:22:00,
2013-02-05 09:27:00,58.1,44.2,30.06,East,97,3.0,8.0,60,0.00,,,0.00,meteohub,2013-02-05 14:27:00,
2013-02-05 09:32:00,59.0,43.7,30.06,ESE,106,2.0,7.0,57,0.00,,,0.00,meteohub,2013-02-05 14:32:00,
2013-02-05 09:37:00,59.4,44.1,30.06,ESE,117,2.0,7.0,57,0.00,,,0.00,meteohub,2013-02-05 14:37:00,
2013-02-05 09:42:00,60.1,44.8,30.06,ESE,116,0.0,7.0,57,0.00,,,0.00,meteohub,2013-02-05 14:42:00,
2013-02-05 09:47:00,60.8,44.6,30.06,East,94,1.0,7.0,55,0.00,,,0.00,meteohub,2013-02-05 14:47:00,
2013-02-05 09:52:00,61.0,44.2,30.07,East,80,1.0,7.0,54,0.00,,,0.00,meteohub,2013-02-05 14:52:00,
2013-02-05 09:57:00,61.2,43.9,30.06,ENE,74,3.0,7.0,53,0.00,,,0.00,meteohub,2013-02-05 14:57:00,
2013-02-05 10:02:00,61.5,44.2,30.07,NE,47,3.0,7.0,53,0.00,,,0.00,meteohub,2013-02-05 15:02:00,
2013-02-05 10:07:00,62.4,45.1,30.07,ENE,59,2.0,6.0,53,0.00,,,0.00,meteohub,2013-02-05 15:07:00,
2013-02-05 10:12:00,63.0,44.6,30.07,ENE,74,1.0,6.0,51,0.00,,,0.00,meteohub,2013-02-05 15:12:00,
2013-02-05 10:17:00,63.3,43.9,30.07,East,86,3.0,7.0,49,0.00,,,0.00,meteohub,2013-02-05 15:17:00,
2013-02-05 10:22:00,63.7,44.2,30.07,East,86,1.0,7.0,49,0.00,,,0.00,meteohub,2013-02-05 15:22:00,
2013-02-05 10:27:00,63.9,44.8,30.07,East,96,3.0,7.0,50,0.00,,,0.00,meteohub,2013-02-05 15:27:00,
2013-02-05 10:32:00,64.0,44.4,30.07,East,96,2.0,7.0,49,0.00,,,0.00,meteohub,2013-02-05 15:32:00,
2013-02-05 10:37:00,64.6,44.4,30.07,East,93,3.0,7.0,48,0.00,,,0.00,meteohub,2013-02-05 15:37:00,
2013-02-05 10:42:00,64.8,44.6,30.07,ESE,122,2.0,7.0,48,0.00,,,0.00,meteohub,2013-02-05 15:42:00,
2013-02-05 10:47:00,64.9,45.3,30.07,SE,141,4.0,8.0,49,0.00,,,0.00,meteohub,2013-02-05 15:47:00,
2013-02-05 10:52:00,65.7,45.0,30.06,ESE,112,1.0,8.0,47,0.00,,,0.00,meteohub,2013-02-05 15:52:00,
2013-02-05 10:57:00,65.7,45.5,30.06,ESE,107,0.0,8.0,48,0.00,,,0.00,meteohub,2013-02-05 15:57:00,
2013-02-05 11:02:00,65.8,45.7,30.06,ESE,115,0.0,7.0,48,0.00,,,0.00,meteohub,2013-02-05 16:02:00,
2013-02-05 11:07:00,66.4,46.0,30.06,ESE,108,3.0,7.0,48,0.00,,,0.00,meteohub,2013-02-05 16:07:00,
2013-02-05 11:17:00,66.6,46.2,30.06,ESE,109,5.0,7.0,48,0.00,,,0.00,meteohub,2013-02-05 16:17:00,
2013-02-05 11:22:00,66.7,46.9,30.06,ESE,107,0.0,8.0,49,0.00,,,0.00,meteohub,2013-02-05 16:22:00,
2013-02-05 11:32:00,68.2,48.4,30.06,East,88,5.0,8.0,49,0.00,,,0.00,meteohub,2013-02-05 16:32:00,
2013-02-05 11:37:00,68.5,48.0,30.06,East,80,2.0,7.0,48,0.00,,,0.00,meteohub,2013-02-05 16:37:00,
2013-02-05 11:42:00,69.1,49.6,30.06,East,90,5.0,7.0,50,0.00,,,0.00,meteohub,2013-02-05 16:42:00,
2013-02-05 11:47:00,69.4,49.5,30.05,East,85,3.0,6.0,49,0.00,,,0.00,meteohub,2013-02-05 16:47:00,
2013-02-05 11:52:00,69.3,49.8,30.05,ENE,57,3.0,7.0,50,0.00,,,0.00,meteohub,2013-02-05 16:52:00,
2013-02-05 11:57:00,69.8,50.9,30.05,ENE,61,4.0,7.0,51,0.00,,,0.00,meteohub,2013-02-05 16:57:00,
2013-02-05 12:02:00,69.6,50.2,30.05,East,92,5.0,7.0,50,0.00,,,0.00,meteohub,2013-02-05 17:02:00,
2013-02-05 12:07:00,69.4,51.1,30.05,East,88,1.0,9.0,52,0.00,,,0.00,meteohub,2013-02-05 17:07:00,
2013-02-05 12:12:00,70.2,51.8,30.05,ESE,116,3.0,9.0,52,0.00,,,0.00,meteohub,2013-02-05 17:12:00,
2013-02-05 12:17:00,70.9,51.8,30.05,SSW,192,7.0,9.0,51,0.00,,,0.00,meteohub,2013-02-05 17:17:00,
2013-02-05 12:22:00,71.2,51.6,30.05,South,172,5.0,10.0,50,0.00,,,0.00,meteohub,2013-02-05 17:22:00,
2013-02-05 12:27:00,70.5,51.4,30.05,SW,230,4.0,12.0,51,0.00,,,0.00,meteohub,2013-02-05 17:27:00,
2013-02-05 12:32:00,70.3,51.4,30.04,WSW,240,2.0,12.0,51,0.00,,,0.00,meteohub,2013-02-05 17:32:00,
2013-02-05 12:37:00,71.1,50.9,30.04,South,171,2.0,12.0,49,0.00,,,0.00,meteohub,2013-02-05 17:37:00,
2013-02-05 12:42:00,70.9,50.7,30.04,South,184,3.0,11.0,49,0.00,,,0.00,meteohub,2013-02-05 17:42:00,
2013-02-05 12:47:00,70.7,51.1,30.04,SE,125,1.0,11.0,50,0.00,,,0.00,meteohub,2013-02-05 17:47:00,
2013-02-05 12:52:00,70.9,51.8,30.04,South,171,2.0,11.0,51,0.00,,,0.00,meteohub,2013-02-05 17:52:00,
2013-02-05 12:57:00,71.2,51.6,30.04,West,265,0.0,7.0,50,0.00,,,0.00,meteohub,2013-02-05 17:57:00,
2013-02-05 13:02:00,72.0,52.3,30.03,SSE,150,4.0,6.0,50,0.00,,,0.00,meteohub,2013-02-05 18:02:00,
2013-02-05 13:12:00,71.8,52.2,30.02,SSW,192,3.0,8.0,50,0.00,,,0.00,meteohub,2013-02-05 18:12:00,
2013-02-05 13:17:00,72.1,52.0,30.02,SSE,153,2.0,8.0,49,0.00,,,0.00,meteohub,2013-02-05 18:17:00,
2013-02-05 13:22:00,72.7,52.9,30.01,South,180,3.0,7.0,50,0.00,,,0.00,meteohub,2013-02-05 18:22:00,
2013-02-05 13:27:00,73.0,53.2,30.01,SSE,159,6.0,9.0,50,0.00,,,0.00,meteohub,2013-02-05 18:27:00,
2013-02-05 13:32:00,72.9,52.5,30.01,SSE,153,5.0,9.0,49,0.00,,,0.00,meteohub,2013-02-05 18:32:00,
2013-02-05 13:37:00,72.1,53.1,30.01,SSE,148,2.0,9.0,51,0.00,,,0.00,meteohub,2013-02-05 18:37:00,
2013-02-05 13:42:00,72.5,54.0,30.00,SSE,154,6.0,12.0,52,0.00,,,0.00,meteohub,2013-02-05 18:42:00,
2013-02-05 13:47:00,73.0,53.8,30.00,SSE,156,4.0,12.0,51,0.00,,,0.00,meteohub,2013-02-05 18:47:00,
2013-02-05 13:52:00,73.0,53.8,29.99,SSW,202,9.0,12.0,51,0.00,,,0.00,meteohub,2013-02-05 18:52:00,
2013-02-05 13:57:00,73.2,54.0,29.99,South,185,9.0,12.0,51,0.00,,,0.00,meteohub,2013-02-05 18:57:00,
2013-02-05 14:02:00,73.2,54.0,29.99,SE,133,8.0,12.0,51,0.00,,,0.00,meteohub,2013-02-05 19:02:00,
2013-02-05 14:07:00,72.7,54.0,29.99,SSE,161,4.0,15.0,52,0.00,,,0.00,meteohub,2013-02-05 19:07:00,
2013-02-05 14:12:00,72.9,53.6,29.98,South,186,8.0,15.0,51,0.00,,,0.00,meteohub,2013-02-05 19:12:00,
2013-02-05 14:17:00,73.0,54.3,29.98,SSE,162,10.0,15.0,52,0.00,,,0.00,meteohub,2013-02-05 19:17:00,
2013-02-05 14:22:00,72.9,54.1,29.98,SSE,168,0.0,15.0,52,0.00,,,0.00,meteohub,2013-02-05 19:22:00,
2013-02-05 14:27:00,72.5,54.3,29.98,SE,126,4.0,14.0,53,0.00,,,0.00,meteohub,2013-02-05 19:27:00,
2013-02-05 14:32:00,72.9,54.1,29.98,ESE,122,11.0,14.0,52,0.00,,,0.00,meteohub,2013-02-05 19:32:00,
2013-02-05 14:37:00,72.9,54.7,29.98,SE,132,5.0,14.0,53,0.00,,,0.00,meteohub,2013-02-05 19:37:00,
2013-02-05 14:42:00,72.9,54.7,29.98,SE,132,3.0,11.0,53,0.00,,,0.00,meteohub,2013-02-05 19:42:00,
2013-02-05 14:47:00,73.0,54.9,29.98,SSE,152,4.0,11.0,53,0.00,,,0.00,meteohub,2013-02-05 19:47:00,
2013-02-05 14:52:00,73.2,54.5,29.98,ESE,123,2.0,17.0,52,0.00,,,0.00,meteohub,2013-02-05 19:52:00,
2013-02-05 14:57:00,73.2,55.0,29.98,SSE,168,4.0,17.0,53,0.00,,,0.00,meteohub,2013-02-05 19:57:00,
2013-02-05 15:02:00,73.6,54.9,29.98,SSE,161,5.0,12.0,52,0.00,,,0.00,meteohub,2013-02-05 20:02:00,
2013-02-05 15:07:00,73.6,55.4,29.98,South,190,4.0,12.0,53,0.00,,,0.00,meteohub,2013-02-05 20:07:00,
2013-02-05 15:17:00,73.8,55.6,29.97,SSE,148,7.0,12.0,53,0.00,,,0.00,meteohub,2013-02-05 20:17:00,
2013-02-05 15:22:00,73.6,54.3,29.97,SSE,162,5.0,15.0,51,0.00,,,0.00,meteohub,2013-02-05 20:22:00,
2013-02-05 15:32:00,73.8,54.5,29.97,South,188,4.0,15.0,51,0.00,,,0.00,meteohub,2013-02-05 20:32:00,
2013-02-05 15:37:00,73.9,55.2,29.98,SSW,194,1.0,12.0,52,0.00,,,0.00,meteohub,2013-02-05 20:37:00,
2013-02-05 15:42:00,74.7,55.4,29.98,SW,218,6.0,11.0,51,0.00,,,0.00,meteohub,2013-02-05 20:42:00,
2013-02-05 15:47:00,73.8,54.0,29.98,SW,225,7.0,10.0,50,0.00,,,0.00,meteohub,2013-02-05 20:47:00,
2013-02-05 15:57:00,73.2,54.0,29.98,SW,218,8.0,14.0,51,0.00,,,0.00,meteohub,2013-02-05 20:57:00,
2013-02-05 16:02:00,73.2,54.0,29.98,WSW,242,1.0,12.0,51,0.00,,,0.00,meteohub,2013-02-05 21:02:00,
2013-02-05 16:12:00,73.0,54.3,29.98,SSW,202,7.0,11.0,52,0.00,,,0.00,meteohub,2013-02-05 21:12:00,
2013-02-05 16:17:00,73.0,54.3,29.98,SSW,194,9.0,11.0,52,0.00,,,0.00,meteohub,2013-02-05 21:17:00,
2013-02-05 16:22:00,72.7,54.5,29.98,SW,221,6.0,12.0,53,0.00,,,0.00,meteohub,2013-02-05 21:22:00,
2013-02-05 16:27:00,72.3,53.8,29.99,SW,222,7.0,12.0,52,0.00,,,0.00,meteohub,2013-02-05 21:27:00,
2013-02-05 16:32:00,72.1,54.1,29.99,SW,234,6.0,12.0,53,0.00,,,0.00,meteohub,2013-02-05 21:32:00,
2013-02-05 16:37:00,72.1,54.5,29.99,SW,224,3.0,12.0,54,0.00,,,0.00,meteohub,2013-02-05 21:37:00,
2013-02-05 16:42:00,72.1,54.5,29.98,WSW,251,3.0,12.0,54,0.00,,,0.00,meteohub,2013-02-05 21:42:00,
2013-02-05 16:47:00,72.0,54.3,29.99,WSW,255,7.0,12.0,54,0.00,,,0.00,meteohub,2013-02-05 21:47:00,
2013-02-05 16:52:00,71.6,54.5,29.99,WSW,254,9.0,11.0,55,0.00,,,0.00,meteohub,2013-02-05 21:52:00,
2013-02-05 16:57:00,71.4,55.4,29.99,WSW,248,8.0,11.0,57,0.00,,,0.00,meteohub,2013-02-05 21:57:00,
2013-02-05 17:02:00,71.2,55.2,29.98,West,277,5.0,11.0,57,0.00,,,0.00,meteohub,2013-02-05 22:02:00,
2013-02-05 17:07:00,71.6,54.5,29.98,SW,229,3.0,11.0,55,0.00,,,0.00,meteohub,2013-02-05 22:07:00,
2013-02-05 17:12:00,71.8,55.8,29.98,SW,236,4.0,10.0,57,0.00,,,0.00,meteohub,2013-02-05 22:12:00,
2013-02-05 17:17:00,71.8,54.7,29.98,WSW,242,8.0,10.0,55,0.00,,,0.00,meteohub,2013-02-05 22:17:00,
2013-02-05 17:22:00,71.6,54.5,29.98,WSW,249,6.0,12.0,55,0.00,,,0.00,meteohub,2013-02-05 22:22:00,
2013-02-05 17:32:00,71.4,56.3,29.99,SW,222,7.0,12.0,59,0.00,,,0.00,meteohub,2013-02-05 22:32:00,
2013-02-05 17:37:00,71.1,55.9,29.99,WNW,284,3.0,10.0,59,0.00,,,0.00,meteohub,2013-02-05 22:37:00,
2013-02-05 17:47:00,70.5,56.5,29.99,WSW,238,5.0,10.0,61,0.00,,,0.00,meteohub,2013-02-05 22:47:00,
2013-02-05 17:52:00,70.0,56.3,29.99,West,268,6.0,9.0,62,0.00,,,0.00,meteohub,2013-02-05 22:52:00,
2013-02-05 17:57:00,69.3,56.1,29.99,West,261,4.0,10.0,63,0.00,,,0.00,meteohub,2013-02-05 22:57:00,
2013-02-05 18:02:00,68.9,56.3,29.98,WSW,246,3.0,10.0,64,0.00,,,0.00,meteohub,2013-02-05 23:02:00,
2013-02-05 18:07:00,68.5,56.3,29.98,SW,227,4.0,10.0,65,0.00,,,0.00,meteohub,2013-02-05 23:07:00,
2013-02-05 18:12:00,68.2,55.9,29.99,WSW,237,2.0,7.0,65,0.00,,,0.00,meteohub,2013-02-05 23:12:00,
2013-02-05 18:17:00,67.8,56.1,29.98,WSW,238,1.0,6.0,66,0.00,,,0.00,meteohub,2013-02-05 23:17:00,
2013-02-05 18:22:00,67.6,56.3,29.98,WSW,238,1.0,6.0,67,0.00,,,0.00,meteohub,2013-02-05 23:22:00,
2013-02-05 18:32:00,67.3,56.3,29.98,WSW,238,1.0,4.0,68,0.00,,,0.00,meteohub,2013-02-05 23:32:00,
2013-02-05 18:37:00,66.9,55.9,29.98,WSW,238,1.0,3.0,68,0.00,,,0.00,meteohub,2013-02-05 23:37:00,
2013-02-05 18:42:00,66.7,56.3,29.99,WSW,238,3.0,3.0,69,0.00,,,0.00,meteohub,2013-02-05 23:42:00,
2013-02-05 18:47:00,66.6,56.1,29.99,WSW,238,1.0,3.0,69,0.00,,,0.00,meteohub,2013-02-05 23:47:00,
2013-02-05 18:52:00,66.4,56.3,29.99,WSW,238,2.0,3.0,70,0.00,,,0.00,meteohub,2013-02-05 23:52:00,
2013-02-05 19:02:00,65.7,55.9,29.99,WSW,238,1.0,3.0,71,0.00,,,0.00,meteohub,2013-02-06 00:02:00,
2013-02-05 19:07:00,65.5,56.3,29.99,WSW,238,2.0,3.0,72,0.00,,,0.00,meteohub,2013-02-06 00:07:00,
2013-02-05 19:12:00,65.1,56.3,29.99,WSW,238,1.0,3.0,73,0.00,,,0.00,meteohub,2013-02-06 00:12:00,
2013-02-05 19:17:00,64.9,56.1,29.99,WSW,238,0.0,3.0,73,0.00,,,0.00,meteohub,2013-02-06 00:17:00,
2013-02-05 19:22:00,64.9,56.1,29.99,WSW,238,0.0,3.0,73,0.00,,,0.00,meteohub,2013-02-06 00:22:00,
2013-02-05 19:27:00,64.8,55.9,29.99,WSW,238,0.0,2.0,73,0.00,,,0.00,meteohub,2013-02-06 00:27:00,
2013-02-05 19:32:00,64.6,56.1,29.99,WSW,238,0.0,1.0,74,0.00,,,0.00,meteohub,2013-02-06 00:32:00,
2013-02-05 19:37:00,64.4,55.9,29.99,WSW,238,0.0,0.0,74,0.00,,,0.00,meteohub,2013-02-06 00:37:00,
2013-02-05 19:42:00,64.2,55.8,29.99,WSW,238,0.0,0.0,74,0.00,,,0.00,meteohub,2013-02-06 00:42:00,
2013-02-05 19:47:00,64.0,55.6,29.99,WSW,238,0.0,0.0,74,0.00,,,0.00,meteohub,2013-02-06 00:47:00,
2013-02-05 19:52:00,63.9,55.8,29.99,WSW,238,0.0,0.0,75,0.00,,,0.00,meteohub,2013-02-06 00:52:00,
2013-02-05 19:57:00,63.7,55.6,29.99,WSW,238,0.0,0.0,75,0.00,,,0.00,meteohub,2013-02-06 00:57:00,
2013-02-05 20:02:00,63.3,55.2,30.00,WSW,238,0.0,0.0,75,0.00,,,0.00,meteohub,2013-02-06 01:02:00,
2013-02-05 20:07:00,63.1,55.4,30.00,WSW,238,0.0,0.0,76,0.00,,,0.00,meteohub,2013-02-06 01:07:00,
2013-02-05 20:12:00,63.1,56.1,30.00,WSW,238,0.0,0.0,78,0.00,,,0.00,meteohub,2013-02-06 01:12:00,
2013-02-05 20:17:00,63.1,56.1,29.99,WSW,238,0.0,0.0,78,0.00,,,0.00,meteohub,2013-02-06 01:17:00,
2013-02-05 20:22:00,63.0,55.6,29.99,WSW,238,0.0,0.0,77,0.00,,,0.00,meteohub,2013-02-06 01:22:00,
2013-02-05 20:27:00,63.1,56.1,30.00,WSW,238,0.0,2.0,78,0.00,,,0.00,meteohub,2013-02-06 01:27:00,
2013-02-05 20:32:00,63.3,55.9,30.00,WSW,238,0.0,2.0,77,0.00,,,0.00,meteohub,2013-02-06 01:32:00,
2013-02-05 20:37:00,63.3,55.9,30.00,WSW,238,0.0,2.0,77,0.00,,,0.00,meteohub,2013-02-06 01:37:00,
2013-02-05 20:42:00,63.5,56.5,30.00,WSW,238,0.0,1.0,78,0.00,,,0.00,meteohub,2013-02-06 01:42:00,
2013-02-05 20:47:00,63.3,56.3,30.01,WSW,238,0.0,1.0,78,0.00,,,0.00,meteohub,2013-02-06 01:47:00,
2013-02-05 20:52:00,63.1,56.1,30.01,WSW,238,0.0,1.0,78,0.00,,,0.00,meteohub,2013-02-06 01:52:00,
2013-02-05 20:57:00,63.1,57.2,30.00,WSW,238,0.0,1.0,81,0.00,,,0.00,meteohub,2013-02-06 01:57:00,
2013-02-05 21:02:00,63.1,57.2,30.01,WSW,238,0.0,0.0,81,0.00,,,0.00,meteohub,2013-02-06 02:02:00,
2013-02-05 21:07:00,63.1,56.1,30.01,WSW,238,0.0,0.0,78,0.00,,,0.00,meteohub,2013-02-06 02:07:00,
2013-02-05 21:12:00,63.3,56.3,30.01,WSW,238,0.0,0.0,78,0.00,,,0.00,meteohub,2013-02-06 02:12:00,
2013-02-05 21:17:00,63.3,55.9,30.01,WSW,238,0.0,1.0,77,0.00,,,0.00,meteohub,2013-02-06 02:17:00,
2013-02-05 21:22:00,63.5,56.5,30.01,WSW,238,0.0,1.0,78,0.00,,,0.00,meteohub,2013-02-06 02:22:00,
2013-02-05 21:27:00,63.7,57.0,30.01,WSW,238,0.0,0.0,79,0.00,,,0.00,meteohub,2013-02-06 02:27:00,
2013-02-05 21:32:00,63.5,56.8,30.01,WSW,238,0.0,0.0,79,0.00,,,0.00,meteohub,2013-02-06 02:32:00,
2013-02-05 21:37:00,63.3,56.7,30.01,WSW,238,0.0,0.0,79,0.00,,,0.00,meteohub,2013-02-06 02:37:00,
2013-02-05 21:42:00,63.3,57.0,30.02,WSW,238,0.0,0.0,80,0.00,,,0.00,meteohub,2013-02-06 02:42:00,
2013-02-05 21:47:00,63.0,56.3,30.02,WSW,238,0.0,0.0,79,0.00,,,0.00,meteohub,2013-02-06 02:47:00,
2013-02-05 21:57:00,62.6,55.9,30.02,WSW,238,0.0,0.0,79,0.00,,,0.00,meteohub,2013-02-06 02:57:00,
2013-02-05 22:02:00,62.6,56.7,30.01,WSW,238,0.0,0.0,81,0.00,,,0.00,meteohub,2013-02-06 03:02:00,
2013-02-05 22:07:00,62.8,57.2,30.01,WSW,238,0.0,0.0,82,0.00,,,0.00,meteohub,2013-02-06 03:07:00,
2013-02-05 22:12:00,62.4,56.8,30.01,WSW,238,0.0,1.0,82,0.00,,,0.00,meteohub,2013-02-06 03:12:00,
2013-02-05 22:17:00,62.2,56.3,30.01,WSW,238,0.0,1.0,81,0.00,,,0.00,meteohub,2013-02-06 03:17:00,
2013-02-05 22:22:00,62.2,56.3,30.02,WSW,238,1.0,1.0,81,0.00,,,0.00,meteohub,2013-02-06 03:22:00,
2013-02-05 22:27:00,62.2,56.3,30.02,WSW,238,0.0,1.0,81,0.00,,,0.00,meteohub,2013-02-06 03:27:00,
2013-02-05 22:32:00,62.1,56.5,30.02,WSW,238,0.0,1.0,82,0.00,,,0.00,meteohub,2013-02-06 03:32:00,
2013-02-05 22:37:00,62.1,56.5,30.01,WSW,238,0.0,2.0,82,0.00,,,0.00,meteohub,2013-02-06 03:37:00,
2013-02-05 22:42:00,62.1,57.2,30.01,WSW,238,0.0,2.0,84,0.00,,,0.00,meteohub,2013-02-06 03:42:00,
2013-02-05 22:47:00,62.1,57.2,30.01,WSW,238,0.0,2.0,84,0.00,,,0.00,meteohub,2013-02-06 03:47:00,
2013-02-05 22:52:00,61.9,56.7,30.02,WSW,238,0.0,1.0,83,0.00,,,0.00,meteohub,2013-02-06 03:52:00,
2013-02-05 22:57:00,61.5,56.3,30.01,WSW,238,0.0,1.0,83,0.00,,,0.00,meteohub,2013-02-06 03:57:00,
2013-02-05 23:02:00,61.3,56.8,30.01,WSW,238,1.0,1.0,85,0.00,,,0.00,meteohub,2013-02-06 04:02:00,
2013-02-05 23:07:00,61.5,57.0,30.01,SW,236,0.0,3.0,85,0.00,,,0.00,meteohub,2013-02-06 04:07:00,
2013-02-05 23:12:00,61.7,57.2,30.02,SW,236,0.0,3.0,85,0.00,,,0.00,meteohub,2013-02-06 04:12:00,
2013-02-05 23:17:00,61.9,56.7,30.01,SW,235,0.0,3.0,83,0.00,,,0.00,meteohub,2013-02-06 04:17:00,
2013-02-05 23:22:00,62.1,56.8,30.02,SW,235,0.0,3.0,83,0.00,,,0.00,meteohub,2013-02-06 04:22:00,
2013-02-05 23:27:00,62.2,57.0,30.02,SW,235,0.0,3.0,83,0.00,,,0.00,meteohub,2013-02-06 04:27:00,
2013-02-05 23:32:00,62.1,56.8,30.02,SW,235,0.0,2.0,83,0.00,,,0.00,meteohub,2013-02-06 04:32:00,
2013-02-05 23:37:00,61.9,56.7,30.02,SW,235,0.0,1.0,83,0.00,,,0.00,meteohub,2013-02-06 04:37:00,
2013-02-05 23:42:00,61.9,57.0,30.02,SW,235,0.0,0.0,84,0.00,,,0.00,meteohub,2013-02-06 04:42:00,
2013-02-05 23:47:00,61.9,57.4,30.02,SW,235,0.0,0.0,85,0.00,,,0.00,meteohub,2013-02-06 04:47:00,
2013-02-05 23:52:00,61.5,57.0,30.01,SW,235,0.0,0.0,85,0.00,,,0.00,meteohub,2013-02-06 04:52:00,
2013-02-05 23:57:00,61.5,57.0,30.01,SW,235,0.0,0.0,85,0.00,,,0.00,meteohub,2013-02-06 04:57:00,